createdAt,value
2022-08-24T00:01:47.361Z,53.96
2022-08-24T00:04:16.218Z,53.93
2022-08-24T00:06:44.588Z,54.01
2022-08-24T00:09:11.203Z,54.21
2022-08-24T00:11:37.789Z,54.28
2022-08-24T00:14:04.505Z,54.40
2022-08-24T00:16:31.207Z,54.46
2022-08-24T00:18:57.957Z,54.51
2022-08-24T00:21:24.549Z,54.81
2022-08-24T00:23:51.082Z,54.91
2022-08-24T00:26:19.657Z,54.79
2022-08-24T00:28:55.566Z,54.75
2022-08-24T00:31:22.243Z,54.85
2022-08-24T00:33:49.021Z,54.89
2022-08-24T00:36:15.718Z,54.74
2022-08-24T00:38:42.381Z,54.99
2022-08-24T00:41:09.019Z,54.93
2022-08-24T00:43:35.972Z,54.77
2022-08-24T00:46:02.575Z,54.89
2022-08-24T00:48:33.620Z,55.18
2022-08-24T00:51:05.073Z,55.66
2022-08-24T00:53:36.179Z,55.89
2022-08-24T00:56:09.380Z,55.94
2022-08-24T00:58:41.992Z,55.91
2022-08-24T01:01:09.576Z,55.60
2022-08-24T01:06:25.190Z,55.61
2022-08-24T01:08:56.610Z,55.47
2022-08-24T01:11:27.602Z,55.55
2022-08-24T01:14:02.065Z,55.38
2022-08-24T01:16:29.411Z,55.43
2022-08-24T01:18:56.321Z,55.60
2022-08-24T01:21:31.455Z,55.74
2022-08-24T01:24:03.808Z,56.25
2022-08-24T01:26:38.486Z,56.45
2022-08-24T01:29:08.540Z,56.13
2022-08-24T01:31:36.301Z,55.79
2022-08-24T01:34:05.102Z,55.96
2022-08-24T01:36:34.119Z,55.89
2022-08-24T01:39:11.185Z,57.28
2022-08-24T01:41:37.796Z,56.08
2022-08-24T01:44:05.167Z,56.21
2022-08-24T01:46:31.916Z,56.25
2022-08-24T01:48:59.226Z,56.25
2022-08-24T01:51:29.959Z,56.43
2022-08-24T01:53:56.668Z,56.36
2022-08-24T01:56:23.353Z,56.34
2022-08-24T01:58:49.956Z,56.35
2022-08-24T02:01:18.601Z,56.11
2022-08-24T02:03:51.820Z,56.25
2022-08-24T02:06:19.803Z,56.31
2022-08-24T02:08:46.856Z,56.48
2022-08-24T02:11:15.300Z,56.53
2022-08-24T02:13:42.580Z,56.93
2022-08-24T02:16:09.290Z,56.82
2022-08-24T02:18:37.993Z,56.88
2022-08-24T02:21:07.847Z,56.71
2022-08-24T02:23:35.477Z,56.78
2022-08-24T02:26:07.400Z,56.76
2022-08-24T02:28:34.896Z,56.76
2022-08-24T02:31:02.224Z,56.56
2022-08-24T02:33:30.700Z,56.82
2022-08-24T02:35:57.437Z,56.82
2022-08-24T02:38:24.213Z,56.88
2022-08-24T02:40:50.957Z,56.82
2022-08-24T02:43:17.731Z,56.63
2022-08-24T02:45:50.206Z,56.93
2022-08-24T02:48:20.025Z,56.84
2022-08-24T02:50:49.193Z,57.14
2022-08-24T02:53:18.598Z,57.19
2022-08-24T02:55:45.686Z,57.10
2022-08-24T02:58:15.810Z,57.42
2022-08-24T03:00:46.088Z,57.44
2022-08-24T03:03:14.539Z,57.50
2022-08-24T03:05:41.306Z,57.50
2022-08-24T03:08:07.961Z,57.36
2022-08-24T03:10:35.272Z,57.42
2022-08-24T03:13:03.898Z,57.28
2022-08-24T03:15:30.897Z,57.19
2022-08-24T03:17:57.665Z,57.11
2022-08-24T03:20:24.825Z,57.08
2022-08-24T03:22:51.987Z,57.27
2022-08-24T03:25:21.939Z,57.52
2022-08-24T03:27:48.527Z,57.35
2022-08-24T03:30:18.222Z,57.56
2022-08-24T03:32:48.613Z,57.53
2022-08-24T03:35:17.166Z,57.71
2022-08-24T03:37:43.912Z,57.60
2022-08-24T03:40:22.249Z,57.86
2022-08-24T03:42:50.305Z,57.88
2022-08-24T03:45:18.486Z,57.98
2022-08-24T03:47:45.208Z,58.01
2022-08-24T03:50:12.649Z,58.11
2022-08-24T03:52:39.503Z,58.00
2022-08-24T03:55:07.347Z,58.09
2022-08-24T03:57:34.389Z,58.28
2022-08-24T04:00:02.132Z,58.20
2022-08-24T04:02:33.017Z,58.11
2022-08-24T04:05:00.399Z,58.17
2022-08-24T04:07:27.136Z,58.17
2022-08-24T04:09:54.027Z,58.19
2022-08-24T04:12:23.671Z,58.27
2022-08-24T04:14:53.627Z,58.99
2022-08-24T04:17:20.158Z,58.40
2022-08-24T04:19:48.192Z,58.38
2022-08-24T04:22:14.878Z,58.41
2022-08-24T04:24:41.500Z,58.53
2022-08-24T04:27:08.104Z,58.49
2022-08-24T04:29:34.786Z,58.69
2022-08-24T04:32:01.507Z,58.59
2022-08-24T04:34:29.182Z,58.67
2022-08-24T04:36:57.704Z,58.63
2022-08-24T04:39:24.610Z,58.75
2022-08-24T04:42:06.971Z,58.70
2022-08-24T04:44:38.663Z,58.59
2022-08-24T04:47:05.522Z,58.74
2022-08-24T04:49:32.369Z,58.74
2022-08-24T04:51:59.113Z,58.74
2022-08-24T04:54:26.093Z,58.64
2022-08-24T04:57:05.022Z,58.45
2022-08-24T04:59:31.639Z,58.68
2022-08-24T05:01:58.327Z,58.66
2022-08-24T05:04:24.910Z,58.73
2022-08-24T05:06:53.084Z,58.78
2022-08-24T05:09:20.862Z,58.83
2022-08-24T05:11:49.971Z,58.75
2022-08-24T05:14:24.583Z,58.87
2022-08-24T05:16:55.087Z,58.81
2022-08-24T05:19:22.942Z,59.00
2022-08-24T05:21:49.568Z,59.03
2022-08-24T05:24:16.293Z,58.92
2022-08-24T05:26:42.938Z,58.95
2022-08-24T05:29:10.328Z,59.11
2022-08-24T05:31:44.803Z,59.03
2022-08-24T05:34:12.775Z,59.01
2022-08-24T05:36:40.753Z,59.18
2022-08-24T05:39:14.216Z,59.43
2022-08-24T05:41:46.227Z,59.21
2022-08-24T05:44:19.539Z,59.36
2022-08-24T05:46:46.835Z,59.33
2022-08-24T05:49:13.542Z,59.49
2022-08-24T05:51:40.645Z,59.42
2022-08-24T05:54:09.946Z,59.69
2022-08-24T05:56:48.482Z,59.63
2022-08-24T05:59:15.791Z,59.69
2022-08-24T06:01:45.344Z,59.89
2022-08-24T06:04:12.742Z,59.75
2022-08-24T06:06:39.711Z,59.86
2022-08-24T06:09:06.901Z,59.97
2022-08-24T06:11:38.692Z,60.28
2022-08-24T06:14:13.003Z,60.38
2022-08-24T06:16:51.822Z,60.41
2022-08-24T06:19:20.494Z,60.46
2022-08-24T06:21:49.903Z,60.50
2022-08-24T06:24:17.847Z,60.30
2022-08-24T06:26:49.888Z,59.91
2022-08-24T06:29:19.597Z,59.62
2022-08-24T06:31:54.606Z,59.75
2022-08-24T06:34:24.489Z,59.64
2022-08-24T06:36:52.983Z,59.48
2022-08-24T06:39:21.964Z,59.13
2022-08-24T06:41:51.374Z,59.02
2022-08-24T06:44:29.096Z,58.46
2022-08-24T06:47:05.564Z,57.99
2022-08-24T06:49:32.589Z,58.04
2022-08-24T06:51:59.165Z,57.69
2022-08-24T06:54:25.700Z,57.33
2022-08-24T06:56:52.598Z,57.30
2022-08-24T06:59:19.525Z,56.93
2022-08-24T07:01:46.231Z,56.78
2022-08-24T07:04:14.153Z,56.29
2022-08-24T07:07:06.830Z,56.10
2022-08-24T07:09:33.605Z,55.96
2022-08-24T07:12:00.701Z,55.50
2022-08-24T07:14:28.926Z,55.32
2022-08-24T07:16:55.616Z,55.20
2022-08-24T07:19:23.391Z,55.00
2022-08-24T07:21:50.339Z,54.69
2022-08-24T07:24:17.129Z,55.20
2022-08-24T07:26:43.936Z,55.03
2022-08-24T07:29:30.653Z,54.76
2022-08-24T07:32:01.714Z,54.60
2022-08-24T07:34:37.269Z,54.53
2022-08-24T07:37:05.418Z,53.65
2022-08-24T07:39:32.379Z,54.74
2022-08-24T07:42:20.825Z,54.54
2022-08-24T07:44:45.582Z,54.53
2022-08-24T07:47:37.155Z,54.32
2022-08-24T07:50:00.968Z,53.45
2022-08-24T07:52:27.746Z,53.21
2022-08-24T07:54:55.464Z,52.99
2022-08-24T07:57:22.059Z,53.33
2022-08-24T07:59:48.886Z,53.17
2022-08-24T08:02:18.509Z,53.37
2022-08-24T08:04:49.292Z,53.02
2022-08-24T08:07:17.442Z,53.06
2022-08-24T08:09:47.519Z,51.00
2022-08-24T08:12:14.279Z,51.40
2022-08-24T08:14:52.676Z,51.94
2022-08-24T08:17:19.991Z,51.56
2022-08-24T08:19:46.674Z,51.12
2022-08-24T08:22:14.337Z,51.76
2022-08-24T08:25:05.140Z,51.53
2022-08-24T08:27:31.894Z,50.97
2022-08-24T08:29:58.522Z,52.15
2022-08-24T08:32:25.166Z,51.51
2022-08-24T08:34:51.821Z,51.77
2022-08-24T08:37:18.579Z,51.89
2022-08-24T08:39:45.478Z,51.67
2022-08-24T08:42:27.908Z,51.57
2022-08-24T08:45:23.071Z,50.94
2022-08-24T08:48:22.690Z,50.52
2022-08-24T08:50:58.044Z,51.04
2022-08-24T08:53:40.520Z,50.25
2022-08-24T08:56:23.720Z,49.05
2022-08-24T08:59:21.276Z,50.31
2022-08-24T09:02:06.088Z,50.57
2022-08-24T09:04:59.593Z,50.44
2022-08-24T09:07:47.792Z,50.44
2022-08-24T09:10:34.196Z,50.08
2022-08-24T09:13:12.566Z,50.31
2022-08-24T09:15:57.738Z,49.60
2022-08-24T09:18:54.630Z,49.59
2022-08-24T09:21:45.837Z,46.96
2022-08-24T09:24:39.239Z,48.67
2022-08-24T09:27:41.176Z,46.08
2022-08-24T09:30:10.649Z,48.57
2022-08-24T09:32:58.601Z,47.55
2022-08-24T09:35:53.256Z,48.26
2022-08-24T09:38:31.813Z,46.70
2022-08-24T09:41:10.235Z,46.27
2022-08-24T09:43:44.079Z,46.44
2022-08-24T09:46:37.289Z,45.42
2022-08-24T09:49:27.730Z,45.69
2022-08-24T09:52:11.725Z,46.78
2022-08-24T09:55:02.545Z,47.10
2022-08-24T09:58:00.931Z,47.03
2022-08-24T10:00:38.652Z,46.05
2022-08-24T10:03:36.228Z,46.13
2022-08-24T10:06:11.245Z,44.66
2022-08-24T10:09:13.588Z,44.30
2022-08-24T10:12:07.806Z,42.96
2022-08-24T10:15:08.639Z,42.00
2022-08-24T10:17:47.545Z,43.67
2022-08-24T10:20:25.402Z,43.75
2022-08-24T10:22:58.187Z,43.81
2022-08-24T10:25:35.923Z,41.91
2022-08-24T10:28:20.877Z,43.85
2022-08-24T10:30:57.995Z,41.91
2022-08-24T10:34:01.827Z,41.58
2022-08-24T10:37:12.604Z,41.40
2022-08-24T10:40:09.412Z,43.23
2022-08-24T10:43:08.583Z,42.85
2022-08-24T10:45:56.684Z,42.38
2022-08-24T10:48:33.226Z,40.46
2022-08-24T10:51:29.163Z,41.92
2022-08-24T10:53:56.421Z,42.56
2022-08-24T10:56:40.056Z,42.25
2022-08-24T10:59:25.872Z,41.13
2022-08-24T11:02:00.884Z,39.14
2022-08-24T11:04:30.577Z,40.85
2022-08-24T11:07:15.340Z,41.70
2022-08-24T11:09:58.113Z,41.34
2022-08-24T11:12:37.116Z,40.99
2022-08-24T11:15:18.532Z,41.64
2022-08-24T11:18:03.418Z,41.86
2022-08-24T11:20:36.231Z,41.94
2022-08-24T11:23:09.587Z,41.67
2022-08-24T11:25:38.510Z,40.04
2022-08-24T11:28:24.189Z,38.58
2022-08-24T11:30:51.012Z,38.47
2022-08-24T11:33:32.701Z,38.57
2022-08-24T11:36:01.154Z,38.04
2022-08-24T11:38:31.203Z,38.25
2022-08-24T11:41:00.849Z,38.77
2022-08-24T11:43:36.283Z,39.21
2022-08-24T11:46:15.462Z,40.21
2022-08-24T11:48:49.169Z,40.65
2022-08-24T11:51:45.726Z,39.96
2022-08-24T11:54:23.211Z,40.41
2022-08-24T11:57:18.308Z,39.16
2022-08-24T11:59:50.705Z,39.24
2022-08-24T12:02:31.240Z,39.72
2022-08-24T12:05:03.711Z,39.76
2022-08-24T12:07:50.983Z,39.49
2022-08-24T12:10:48.351Z,38.83
2022-08-24T12:13:44.387Z,40.08
2022-08-24T12:16:29.925Z,40.64
2022-08-24T12:19:16.122Z,39.67
2022-08-24T12:21:46.593Z,38.02
2022-08-24T12:24:55.324Z,38.41
2022-08-24T12:27:26.959Z,38.89
2022-08-24T12:30:05.905Z,38.22
2022-08-24T12:32:38.355Z,37.58
2022-08-24T12:35:10.603Z,38.36
2022-08-24T12:38:11.717Z,38.09
2022-08-24T12:40:47.464Z,38.15
2022-08-24T12:43:30.893Z,38.26
2022-08-24T12:45:59.728Z,37.81
2022-08-24T12:48:37.188Z,38.01
2022-08-24T12:51:19.007Z,38.15
2022-08-24T12:53:57.475Z,38.31
2022-08-24T12:57:08.476Z,39.38
2022-08-24T12:59:45.559Z,39.80
2022-08-24T13:02:15.025Z,38.08
2022-08-24T13:04:50.256Z,38.76
2022-08-24T13:07:19.539Z,38.21
2022-08-24T13:09:53.721Z,37.92
2022-08-24T13:12:38.741Z,38.13
2022-08-24T13:15:31.613Z,38.83
2022-08-24T13:18:07.244Z,39.98
2022-08-24T13:20:36.778Z,38.72
2022-08-24T13:23:12.557Z,39.10
2022-08-24T13:25:47.978Z,37.56
2022-08-24T13:28:20.130Z,37.74
2022-08-24T13:30:55.874Z,38.38
2022-08-24T13:33:43.715Z,38.67
2022-08-24T13:36:40.552Z,38.27
2022-08-24T13:39:32.206Z,37.10
2022-08-24T13:42:23.571Z,37.31
2022-08-24T13:44:56.175Z,38.89
2022-08-24T13:47:51.766Z,38.47
2022-08-24T13:50:39.040Z,36.88
2022-08-24T13:53:47.580Z,36.88
2022-08-24T13:56:33.385Z,37.15
2022-08-24T13:59:02.889Z,36.89
2022-08-24T14:01:33.420Z,36.97
2022-08-24T14:04:21.355Z,36.19
2022-08-24T14:06:55.492Z,36.73
2022-08-24T14:09:22.068Z,36.00
2022-08-24T14:12:07.635Z,36.20
2022-08-24T14:14:46.448Z,36.52
2022-08-24T14:17:37.506Z,37.14
2022-08-24T14:20:49.958Z,38.38
2022-08-24T14:23:16.503Z,38.63
2022-08-24T14:25:44.613Z,37.83
2022-08-24T14:28:39.615Z,37.96
2022-08-24T14:31:16.732Z,37.83
2022-08-24T14:34:16.074Z,37.93
2022-08-24T14:36:57.261Z,37.59
2022-08-24T14:39:51.631Z,37.35
2022-08-24T14:42:32.213Z,36.35
2022-08-24T14:45:05.910Z,37.52
2022-08-24T14:48:00.059Z,37.20
2022-08-24T14:50:41.036Z,36.01
2022-08-24T14:53:20.268Z,35.64
2022-08-24T14:56:05.239Z,35.16
2022-08-24T14:58:56.990Z,35.98
2022-08-24T15:01:29.236Z,35.28
2022-08-24T15:04:10.869Z,35.79
2022-08-24T15:06:55.979Z,36.21
2022-08-24T15:09:32.474Z,35.33
2022-08-24T15:12:13.211Z,36.77
2022-08-24T15:14:55.350Z,35.75
2022-08-24T15:17:29.583Z,35.50
2022-08-24T15:20:01.901Z,35.67
2022-08-24T15:22:40.393Z,35.47
2022-08-24T15:25:19.163Z,35.01
2022-08-24T15:27:55.753Z,34.39
2022-08-24T15:30:30.105Z,34.82
2022-08-24T15:33:05.635Z,32.44
2022-08-24T15:35:38.933Z,32.94
2022-08-24T15:38:25.175Z,33.85
2022-08-24T15:41:04.208Z,32.34
2022-08-24T15:43:32.032Z,31.84
2022-08-24T15:45:59.034Z,32.82
2022-08-24T15:48:26.615Z,32.65
2022-08-24T15:50:55.159Z,33.32
2022-08-24T15:53:41.617Z,33.84
2022-08-24T15:56:20.568Z,33.97
2022-08-24T15:58:49.176Z,34.31
2022-08-24T16:01:15.635Z,34.70
2022-08-24T16:03:42.214Z,35.28
2022-08-24T16:06:23.511Z,35.39
2022-08-24T16:09:01.907Z,35.41
2022-08-24T16:11:38.590Z,34.96
2022-08-24T16:14:23.511Z,34.57
2022-08-24T16:16:50.284Z,34.01
2022-08-24T16:19:31.812Z,33.93
2022-08-24T16:22:09.917Z,34.67
2022-08-24T16:24:39.835Z,34.70
2022-08-24T16:27:15.646Z,33.56
2022-08-24T16:29:47.820Z,33.89
2022-08-24T16:32:39.197Z,33.08
2022-08-24T16:35:20.159Z,33.23
2022-08-24T16:37:46.794Z,32.99
2022-08-24T16:40:13.453Z,32.78
2022-08-24T16:42:40.288Z,33.06
2022-08-24T16:45:09.894Z,33.27
2022-08-24T16:47:36.632Z,31.92
2022-08-24T16:50:05.118Z,31.83
2022-08-24T16:52:31.713Z,32.15
2022-08-24T16:54:58.292Z,32.13
2022-08-24T16:57:29.227Z,32.14
2022-08-24T16:59:56.672Z,32.90
2022-08-24T17:02:24.061Z,32.89
2022-08-24T17:04:50.622Z,32.64
2022-08-24T17:07:22.256Z,32.47
2022-08-24T17:09:48.943Z,32.22
2022-08-24T17:12:15.545Z,32.49
2022-08-24T17:14:42.382Z,32.28
2022-08-24T17:17:13.045Z,32.12
2022-08-24T17:19:40.260Z,32.77
2022-08-24T17:22:16.147Z,32.35
2022-08-24T17:24:43.516Z,32.28
2022-08-24T17:27:10.702Z,32.59
2022-08-24T17:29:37.266Z,32.58
2022-08-24T17:32:04.153Z,32.54
2022-08-24T17:34:31.025Z,32.43
2022-08-24T17:37:00.200Z,32.72
2022-08-24T17:39:27.064Z,32.53
2022-08-24T17:41:56.423Z,33.09
2022-08-24T17:44:26.257Z,32.90
2022-08-24T17:46:55.861Z,32.87
2022-08-24T17:49:22.722Z,33.42
2022-08-24T17:51:50.382Z,33.78
2022-08-24T17:54:18.216Z,34.20
2022-08-24T17:56:45.407Z,34.47
2022-08-24T17:59:14.002Z,35.31
2022-08-24T18:01:40.645Z,35.58
2022-08-24T18:04:07.254Z,36.46
2022-08-24T18:06:33.995Z,36.99
2022-08-24T18:09:04.315Z,37.65
2022-08-24T18:11:31.061Z,38.16
2022-08-24T18:13:57.651Z,38.46
2022-08-24T18:16:25.590Z,39.42
2022-08-24T18:18:52.610Z,38.70
2022-08-24T18:21:19.321Z,39.93
2022-08-24T18:23:46.904Z,40.62
2022-08-24T18:26:19.005Z,40.96
2022-08-24T18:28:45.559Z,41.40
2022-08-24T18:31:15.340Z,42.02
2022-08-24T18:33:42.240Z,42.28
2022-08-24T18:36:08.881Z,42.45
2022-08-24T18:38:35.492Z,42.62
2022-08-24T18:41:02.350Z,43.17
2022-08-24T18:43:29.172Z,43.60
2022-08-24T18:45:55.924Z,43.84
2022-08-24T18:48:23.000Z,44.22
2022-08-24T18:50:51.277Z,44.09
2022-08-24T18:53:18.328Z,44.68
2022-08-24T18:55:45.203Z,44.65
2022-08-24T18:58:11.952Z,45.16
2022-08-24T19:00:40.075Z,45.39
2022-08-24T19:03:08.631Z,45.32
2022-08-24T19:05:35.589Z,45.92
2022-08-24T19:08:02.263Z,45.87
2022-08-24T19:10:33.325Z,46.62
2022-08-24T19:13:02.589Z,46.64
2022-08-24T19:15:39.095Z,46.84
2022-08-24T19:18:10.628Z,47.01
2022-08-24T19:20:44.731Z,47.68
2022-08-24T19:23:20.129Z,48.24
2022-08-24T19:25:47.415Z,47.83
2022-08-24T19:28:14.862Z,47.96
2022-08-24T19:30:41.579Z,48.14
2022-08-24T19:33:11.901Z,48.21
2022-08-24T19:35:41.023Z,48.38
2022-08-24T19:38:07.969Z,48.33
2022-08-24T19:40:34.658Z,48.91
2022-08-24T19:43:02.703Z,49.19
2022-08-24T19:45:30.588Z,49.25
2022-08-24T19:47:57.208Z,49.03
2022-08-24T19:50:27.237Z,49.31
2022-08-24T19:52:55.832Z,49.51
2022-08-24T19:55:22.516Z,49.61
2022-08-24T19:57:54.532Z,49.72
2022-08-24T20:00:25.113Z,50.56
2022-08-24T20:02:55.016Z,50.40
2022-08-24T20:05:24.039Z,50.32
2022-08-24T20:07:51.235Z,50.41
2022-08-24T20:10:20.744Z,50.74
2022-08-24T20:12:47.459Z,50.66
2022-08-24T20:15:14.139Z,50.71
2022-08-24T20:17:41.261Z,50.66
2022-08-24T20:20:09.417Z,50.87
2022-08-24T20:22:36.006Z,50.84
2022-08-24T20:25:02.694Z,51.13
2022-08-24T20:27:29.619Z,51.15
2022-08-24T20:29:56.182Z,51.34
2022-08-24T20:32:22.900Z,51.20
2022-08-24T20:34:49.642Z,51.23
2022-08-24T20:37:22.068Z,52.33
2022-08-24T20:39:48.884Z,51.29
2022-08-24T20:42:19.410Z,51.26
2022-08-24T20:44:47.886Z,51.49
2022-08-24T20:47:15.228Z,51.69
2022-08-24T20:49:42.209Z,51.51
2022-08-24T20:52:09.229Z,51.63
2022-08-24T20:54:39.710Z,51.68
2022-08-24T20:57:08.754Z,51.57
2022-08-24T20:59:35.393Z,52.17
2022-08-24T21:02:03.110Z,51.76
2022-08-24T21:04:29.811Z,52.21
2022-08-24T21:06:56.618Z,52.20
2022-08-24T21:09:23.507Z,52.13
2022-08-24T21:11:50.195Z,52.45
2022-08-24T21:14:17.287Z,52.32
2022-08-24T21:16:44.227Z,52.36
2022-08-24T21:19:13.015Z,52.59
2022-08-24T21:21:42.415Z,52.63
2022-08-24T21:24:09.851Z,52.51
2022-08-24T21:26:36.955Z,52.72
2022-08-24T21:29:06.348Z,52.96
2022-08-24T21:31:33.910Z,52.83
2022-08-24T21:34:00.713Z,52.43
2022-08-24T21:36:27.868Z,52.68
2022-08-24T21:38:54.997Z,52.59
2022-08-24T21:41:22.510Z,52.85
2022-08-24T21:43:49.217Z,52.87
2022-08-24T21:46:16.250Z,53.29
2022-08-24T21:48:42.867Z,53.28
2022-08-24T21:51:09.718Z,53.59
2022-08-24T21:53:36.248Z,53.73
2022-08-24T21:56:03.123Z,53.76
2022-08-24T21:58:29.702Z,53.60
2022-08-24T22:00:58.997Z,53.98
2022-08-24T22:03:26.369Z,54.18
2022-08-24T22:05:58.780Z,54.09
2022-08-24T22:08:25.955Z,54.17
2022-08-24T22:10:54.752Z,54.42
2022-08-24T22:13:21.499Z,54.44
2022-08-24T22:15:48.096Z,54.70
2022-08-24T22:18:14.660Z,54.61
2022-08-24T22:20:41.260Z,54.53
2022-08-24T22:23:07.969Z,54.54
2022-08-24T22:25:34.757Z,54.50
2022-08-24T22:28:01.343Z,54.81
2022-08-24T22:30:27.980Z,54.92
2022-08-24T22:32:54.519Z,55.09
2022-08-24T22:35:21.271Z,55.20
2022-08-24T22:37:47.938Z,54.90
2022-08-24T22:40:14.765Z,55.29
2022-08-24T22:42:44.020Z,55.45
2022-08-24T22:45:10.913Z,55.51
2022-08-24T22:47:38.248Z,55.55
2022-08-24T22:50:05.614Z,55.45
2022-08-24T22:52:32.317Z,55.84
2022-08-24T22:54:58.986Z,55.91
2022-08-24T22:57:25.952Z,55.75
2022-08-24T22:59:53.917Z,55.77
2022-08-24T23:02:21.009Z,56.14
2022-08-24T23:04:50.997Z,56.18
2022-08-24T23:07:18.704Z,55.98
2022-08-24T23:09:46.461Z,56.19
2022-08-24T23:12:17.969Z,56.55
2022-08-24T23:14:44.823Z,56.03
2022-08-24T23:17:11.892Z,56.29
2022-08-24T23:19:38.569Z,55.97
2022-08-24T23:22:06.615Z,56.43
2022-08-24T23:24:33.520Z,56.46
2022-08-24T23:27:02.134Z,56.27
2022-08-24T23:29:28.825Z,56.49
2022-08-24T23:31:55.545Z,56.52
2022-08-24T23:34:22.789Z,56.37
2022-08-24T23:36:50.156Z,56.76
2022-08-24T23:39:18.275Z,56.70
2022-08-24T23:41:46.375Z,56.70
2022-08-24T23:44:14.702Z,56.89
2022-08-24T23:46:41.493Z,56.47
2022-08-24T23:49:08.615Z,56.78
2022-08-24T23:51:35.930Z,56.73
2022-08-24T23:54:03.072Z,57.10
2022-08-24T23:56:32.159Z,57.27
2022-08-24T23:59:03.706Z,57.73
